Time;durP1;ratioP1;P1;durP2;ratioP2;P2;SDS_P1;SDS_P2;PMS_P1;PMS_P2;Temp;Humidity;BMP_temperature;BMP_pressure;BME280_temperature;BME280_humidity;BME280_pressure;Samples;Min_cycle;Max_cycle;Signal;HPM_P1;HPM_P2
2021/08/29 00:02:18;;;;;;;0.10;0.10;;;16.60;99.90;;;;;;5076665;28;20230;-82
2021/08/29 00:04:44;;;;;;;0.30;0.30;;;16.30;99.90;;;;;;5076298;28;20204;-81
2021/08/29 00:07:10;;;;;;;0.10;0.10;;;16.20;99.90;;;;;;5075595;28;20180;-80
2021/08/29 00:09:35;;;;;;;0.27;0.27;;;16.10;99.90;;;;;;5075241;28;20185;-81
2021/08/29 00:12:01;;;;;;;0.10;0.10;;;16.20;99.90;;;;;;5076682;28;20242;-81
2021/08/29 00:14:26;;;;;;;0.10;0.10;;;16.30;99.90;;;;;;5076178;28;20216;-81
2021/08/29 00:16:52;;;;;;;0.20;0.20;;;16.30;99.90;;;;;;5075164;28;20187;-82
2021/08/29 00:19:17;;;;;;;0.27;0.27;;;16.30;99.90;;;;;;5076190;28;20185;-81
2021/08/29 00:21:43;;;;;;;0.50;0.30;;;16.40;99.90;;;;;;5076119;28;20698;-80
2021/08/29 00:24:08;;;;;;;0.10;0.10;;;16.40;99.90;;;;;;5074309;28;20188;-82
2021/08/29 00:26:34;;;;;;;0.10;0.10;;;16.50;99.90;;;;;;5072070;28;20694;-81
2021/08/29 00:29:00;;;;;;;0.10;0.10;;;16.50;99.90;;;;;;5071966;28;20603;-81
2021/08/29 00:31:25;;;;;;;0.10;0.10;;;16.50;99.90;;;;;;5075693;28;20215;-81
2021/08/29 00:33:51;;;;;;;0.20;0.20;;;16.50;99.90;;;;;;5072894;28;20208;-81
2021/08/29 00:36:16;;;;;;;0.10;0.10;;;16.50;99.90;;;;;;5075249;28;20222;-81
2021/08/29 00:38:42;;;;;;;0.27;0.27;;;16.50;99.90;;;;;;5075010;28;20663;-81
2021/08/29 00:41:09;;;;;;;0.10;0.10;;;16.60;99.90;;;;;;5073670;28;20298;-80
2021/08/29 00:43:35;;;;;;;0.10;0.10;;;16.50;99.90;;;;;;5075251;28;20599;-81
2021/08/29 00:46:00;;;;;;;0.10;0.10;;;16.60;99.90;;;;;;5073802;28;20241;-81
2021/08/29 00:48:26;;;;;;;0.10;0.10;;;16.60;99.90;;;;;;5073162;28;20569;-80
2021/08/29 00:50:54;;;;;;;0.10;0.10;;;16.60;99.90;;;;;;5075385;28;20187;-81
2021/08/29 00:53:23;;;;;;;0.10;0.10;;;16.70;99.90;;;;;;5072693;28;20223;-82
2021/08/29 00:55:50;;;;;;;1.33;0.23;;;16.70;99.90;;;;;;5073526;28;20595;-81
2021/08/29 00:58:20;;;;;;;0.17;0.17;;;16.70;99.90;;;;;;5074952;28;20664;-81
2021/08/29 01:00:46;;;;;;;0.20;0.20;;;16.80;99.90;;;;;;5075141;28;20189;-81
2021/08/29 01:03:19;;;;;;;0.10;0.10;;;16.70;99.90;;;;;;5075835;28;20262;-81
2021/08/29 01:06:06;;;;;;;0.10;0.10;;;16.70;99.90;;;;;;5075975;28;20273;-80
2021/08/29 01:08:35;;;;;;;0.20;0.20;;;16.60;99.90;;;;;;5063926;28;20203;-81
2021/08/29 01:11:10;;;;;;;0.10;0.10;;;16.40;99.90;;;;;;5074511;28;20208;-80
2021/08/29 01:13:44;;;;;;;0.57;0.20;;;16.40;99.90;;;;;;5075557;28;20216;-81
2021/08/29 01:16:12;;;;;;;0.23;0.23;;;16.30;99.90;;;;;;5076319;28;20208;-81
2021/08/29 01:18:43;;;;;;;0.10;0.10;;;16.30;99.90;;;;;;5076383;28;20176;-81
2021/08/29 01:21:17;;;;;;;0.10;0.10;;;16.20;99.90;;;;;;5074694;28;20204;-81
2021/08/29 01:23:52;;;;;;;0.10;0.10;;;16.10;99.90;;;;;;5075595;28;20266;-81
2021/08/29 01:26:20;;;;;;;0.10;0.10;;;16.10;99.90;;;;;;5074382;28;20207;-81
2021/08/29 01:28:56;;;;;;;0.10;0.10;;;16.10;99.90;;;;;;5073674;28;20246;-81
2021/08/29 01:31:25;;;;;;;0.10;0.10;;;16.10;99.90;;;;;;5074103;28;20711;-81
2021/08/29 01:33:51;;;;;;;0.10;0.10;;;16.00;99.90;;;;;;5073778;28;20567;-81
2021/08/29 01:36:18;;;;;;;0.10;0.10;;;16.00;99.90;;;;;;5074652;28;20180;-81
2021/08/29 01:38:46;;;;;;;0.30;0.10;;;15.90;99.90;;;;;;5073984;28;20195;-80
2021/08/29 01:41:14;;;;;;;0.10;0.10;;;16.00;99.90;;;;;;5074295;28;20684;-80
2021/08/29 01:43:41;;;;;;;0.20;0.20;;;16.10;99.90;;;;;;5073684;28;20190;-80
2021/08/29 01:46:07;;;;;;;0.20;0.20;;;16.20;99.90;;;;;;5075059;28;20192;-80
2021/08/29 01:48:34;;;;;;;0.10;0.10;;;16.20;99.90;;;;;;5078761;28;20183;-81
2021/08/29 01:51:02;;;;;;;0.20;0.20;;;16.30;99.90;;;;;;5078789;28;20205;-81
2021/08/29 01:53:28;;;;;;;0.10;0.10;;;16.10;99.90;;;;;;5078127;28;20212;-80
2021/08/29 01:55:53;;;;;;;0.10;0.10;;;16.10;99.90;;;;;;5076634;28;20202;-79
2021/08/29 01:58:19;;;;;;;0.17;0.17;;;16.00;99.90;;;;;;5078431;28;20180;-81
2021/08/29 02:00:52;;;;;;;0.20;0.20;;;15.90;99.90;;;;;;5078939;28;20233;-81
2021/08/29 02:03:19;;;;;;;0.30;0.30;;;15.80;99.90;;;;;;5079159;28;20189;-82
2021/08/29 02:05:46;;;;;;;0.20;0.20;;;15.80;99.90;;;;;;5078273;28;20232;-81
2021/08/29 02:08:15;;;;;;;0.10;0.10;;;15.70;99.90;;;;;;5079721;28;20199;-79
2021/08/29 02:10:41;;;;;;;0.10;0.10;;;15.60;99.90;;;;;;5077112;28;20198;-81
2021/08/29 02:13:11;;;;;;;0.10;0.10;;;15.70;99.90;;;;;;5077428;28;20214;-81
2021/08/29 02:15:44;;;;;;;0.20;0.20;;;15.60;99.90;;;;;;5078885;28;20186;-81
2021/08/29 02:18:12;;;;;;;0.20;0.20;;;15.60;99.90;;;;;;5077993;28;20223;-81
2021/08/29 02:20:38;;;;;;;0.13;0.13;;;15.60;99.90;;;;;;5077351;28;20247;-81
2021/08/29 02:23:05;;;;;;;0.20;0.20;;;15.50;99.90;;;;;;5078451;28;20222;-81
2021/08/29 02:25:31;;;;;;;0.20;0.20;;;15.40;99.90;;;;;;5077258;28;20234;-79
2021/08/29 02:27:57;;;;;;;0.20;0.20;;;15.40;99.90;;;;;;5076668;28;20316;-81
2021/08/29 02:30:24;;;;;;;0.20;0.20;;;15.30;99.90;;;;;;5077300;28;20267;-81
2021/08/29 02:32:54;;;;;;;0.20;0.20;;;15.20;99.90;;;;;;5076525;28;20622;-81
2021/08/29 02:35:21;;;;;;;0.10;0.10;;;15.20;99.90;;;;;;5076455;28;20240;-81
2021/08/29 02:37:49;;;;;;;0.10;0.10;;;15.20;99.90;;;;;;5076417;28;20190;-81
2021/08/29 02:40:16;;;;;;;0.10;0.10;;;15.30;99.90;;;;;;5075974;28;20284;-81
2021/08/29 02:42:42;;;;;;;0.17;0.17;;;15.10;99.90;;;;;;5075226;28;20621;-80
2021/08/29 02:45:10;;;;;;;0.13;0.13;;;15.30;99.90;;;;;;5070862;28;20194;-81
2021/08/29 02:47:36;;;;;;;0.10;0.10;;;15.10;99.90;;;;;;5075658;28;20198;-81
2021/08/29 02:50:02;;;;;;;0.10;0.10;;;15.10;99.90;;;;;;5077999;28;20185;-81
2021/08/29 02:52:28;;;;;;;0.20;0.20;;;15.20;99.90;;;;;;5076437;28;20202;-81
2021/08/29 02:54:57;;;;;;;0.10;0.10;;;15.20;99.90;;;;;;5078407;28;20286;-80
2021/08/29 02:57:29;;;;;;;0.10;0.10;;;15.20;99.90;;;;;;5075605;28;20555;-81
2021/08/29 02:59:55;;;;;;;0.10;0.10;;;15.20;99.90;;;;;;5076304;28;20796;-81
2021/08/29 03:02:20;;;;;;;0.20;0.20;;;15.30;99.90;;;;;;5076597;28;20254;-80
2021/08/29 03:04:46;;;;;;;0.27;0.27;;;15.30;99.90;;;;;;5078150;28;20186;-81
2021/08/29 03:07:12;;;;;;;0.10;0.10;;;15.20;99.90;;;;;;5075891;28;20230;-81
2021/08/29 03:09:37;;;;;;;0.20;0.20;;;15.30;99.90;;;;;;5075882;28;20618;-81
2021/08/29 03:12:08;;;;;;;0.10;0.10;;;15.20;99.90;;;;;;5075617;28;20213;-81
2021/08/29 03:14:35;;;;;;;0.17;0.17;;;15.20;99.90;;;;;;5075888;28;20216;-81
2021/08/29 03:17:01;;;;;;;0.10;0.10;;;15.20;99.90;;;;;;5075472;28;20245;-81
2021/08/29 03:19:28;;;;;;;0.17;0.17;;;15.30;99.90;;;;;;5077184;28;20593;-80
2021/08/29 03:21:54;;;;;;;0.20;0.20;;;15.40;99.90;;;;;;5075579;28;20275;-81
2021/08/29 03:24:20;;;;;;;0.10;0.10;;;15.20;99.90;;;;;;5076669;28;20215;-81
2021/08/29 03:26:46;;;;;;;0.20;0.20;;;15.30;99.90;;;;;;5075031;28;20190;-81
2021/08/29 03:29:12;;;;;;;0.13;0.13;;;15.20;99.90;;;;;;5074456;28;20683;-81
2021/08/29 03:31:38;;;;;;;0.10;0.10;;;15.30;99.90;;;;;;5076124;28;20214;-80
2021/08/29 03:34:05;;;;;;;0.10;0.10;;;15.20;99.90;;;;;;5075435;28;20211;-81
2021/08/29 03:36:32;;;;;;;0.10;0.10;;;15.30;99.90;;;;;;5076918;28;20191;-80
2021/08/29 03:38:59;;;;;;;1.10;0.60;;;15.30;99.90;;;;;;5077006;28;20179;-81
2021/08/29 03:41:27;;;;;;;0.20;0.20;;;15.20;99.90;;;;;;5077311;28;20200;-80
2021/08/29 03:43:53;;;;;;;0.10;0.10;;;15.30;99.90;;;;;;5071930;28;20178;-79
2021/08/29 03:46:19;;;;;;;0.10;0.10;;;15.30;99.90;;;;;;5075103;28;20340;-81
2021/08/29 03:48:45;;;;;;;0.10;0.10;;;15.30;99.90;;;;;;5076707;28;20231;-81
2021/08/29 03:51:14;;;;;;;0.20;0.20;;;15.30;99.90;;;;;;5076740;28;20261;-81
2021/08/29 03:53:40;;;;;;;0.30;0.30;;;15.40;99.90;;;;;;5075098;28;20265;-81
2021/08/29 03:56:07;;;;;;;0.10;0.10;;;15.30;99.90;;;;;;5075612;28;20643;-81
2021/08/29 03:58:38;;;;;;;0.40;0.40;;;15.30;99.90;;;;;;5076387;28;20179;-80
2021/08/29 04:01:04;;;;;;;0.57;0.57;;;15.30;99.90;;;;;;5077179;28;20206;-81
2021/08/29 04:03:29;;;;;;;0.37;0.37;;;15.40;99.90;;;;;;5074825;28;20194;-79
2021/08/29 04:05:57;;;;;;;0.30;0.30;;;15.40;99.90;;;;;;5075004;28;20225;-81
2021/08/29 04:08:29;;;;;;;0.30;0.30;;;15.20;99.90;;;;;;5074960;28;20186;-80
2021/08/29 04:10:59;;;;;;;0.20;0.20;;;15.30;99.90;;;;;;5109072;28;20190;-80
2021/08/29 04:13:27;;;;;;;1.90;0.53;;;15.30;99.90;;;;;;5076036;28;20259;-81
2021/08/29 04:15:53;;;;;;;1.13;0.30;;;15.30;99.90;;;;;;5076305;28;20181;-80
2021/08/29 04:18:21;;;;;;;0.10;0.10;;;15.30;99.90;;;;;;5075092;28;20253;-79
2021/08/29 04:20:47;;;;;;;0.30;0.27;;;15.40;99.90;;;;;;5073878;28;20182;-81
2021/08/29 04:23:13;;;;;;;0.60;0.20;;;15.30;99.90;;;;;;5075847;28;20266;-81
2021/08/29 04:25:39;;;;;;;0.73;0.30;;;15.30;99.90;;;;;;5076299;28;20243;-81
2021/08/29 04:28:05;;;;;;;0.10;0.10;;;15.30;99.90;;;;;;5076709;28;20183;-81
2021/08/29 04:30:31;;;;;;;0.27;0.27;;;15.40;99.90;;;;;;5075438;28;20259;-81
2021/08/29 04:32:56;;;;;;;0.23;0.23;;;15.50;99.90;;;;;;5075016;28;20207;-81
2021/08/29 04:35:22;;;;;;;0.30;0.30;;;15.50;99.90;;;;;;5076965;28;20170;-81
2021/08/29 04:37:48;;;;;;;0.30;0.30;;;15.40;99.90;;;;;;5076956;28;20178;-81
2021/08/29 04:40:14;;;;;;;0.10;0.10;;;15.40;99.90;;;;;;5076800;28;20176;-81
2021/08/29 04:42:39;;;;;;;0.37;0.37;;;15.50;99.90;;;;;;5074415;28;20293;-81
2021/08/29 04:45:05;;;;;;;0.30;0.30;;;15.50;99.90;;;;;;5074949;28;20203;-80
2021/08/29 04:47:31;;;;;;;0.27;0.10;;;15.50;99.90;;;;;;5076010;28;20186;-81
2021/08/29 04:49:56;;;;;;;0.40;0.40;;;15.50;99.90;;;;;;5076282;28;20232;-80
2021/08/29 04:52:22;;;;;;;0.23;0.23;;;15.50;99.90;;;;;;5075412;28;20195;-81
2021/08/29 04:54:48;;;;;;;0.40;0.20;;;15.50;99.90;;;;;;5076477;28;20222;-80
2021/08/29 04:57:13;;;;;;;0.20;0.20;;;15.40;99.90;;;;;;5076954;28;20178;-78
2021/08/29 04:59:39;;;;;;;0.30;0.20;;;15.40;99.90;;;;;;5075327;28;20217;-80
2021/08/29 05:02:04;;;;;;;11.87;0.50;;;15.40;99.90;;;;;;5077521;28;20595;-82
2021/08/29 05:04:30;;;;;;;0.10;0.10;;;15.50;99.90;;;;;;5068348;28;20555;-81
2021/08/29 05:06:55;;;;;;;0.17;0.17;;;15.60;99.90;;;;;;5074630;28;20312;-81
2021/08/29 05:09:21;;;;;;;0.13;0.13;;;15.60;99.90;;;;;;5075581;28;20241;-80
2021/08/29 05:11:47;;;;;;;0.23;0.23;;;15.60;99.90;;;;;;5076104;28;20264;-81
2021/08/29 05:14:12;;;;;;;0.30;0.30;;;15.60;99.90;;;;;;5075944;28;20215;-81
2021/08/29 05:16:38;;;;;;;0.53;0.17;;;15.60;99.90;;;;;;5076123;28;20632;-82
2021/08/29 05:19:03;;;;;;;0.67;0.33;;;15.50;99.90;;;;;;5074899;28;20196;-80
2021/08/29 05:21:29;;;;;;;0.20;0.20;;;15.50;99.90;;;;;;5080183;28;20266;-82
2021/08/29 05:23:54;;;;;;;0.30;0.30;;;15.50;99.90;;;;;;5079462;28;20179;-81
2021/08/29 05:26:20;;;;;;;0.20;0.20;;;15.60;99.90;;;;;;5078036;28;20190;-81
2021/08/29 05:28:45;;;;;;;0.10;0.10;;;15.50;99.90;;;;;;5079534;28;20197;-81
2021/08/29 05:31:11;;;;;;;0.23;0.23;;;15.50;99.90;;;;;;5080116;28;20226;-81
2021/08/29 05:33:37;;;;;;;0.20;0.20;;;15.60;99.90;;;;;;5079387;28;20768;-79
2021/08/29 05:36:02;;;;;;;0.27;0.27;;;15.50;99.90;;;;;;5078675;28;20190;-81
2021/08/29 05:38:28;;;;;;;0.20;0.20;;;15.60;99.90;;;;;;5077370;28;20256;-81
2021/08/29 05:40:53;;;;;;;0.10;0.10;;;15.60;99.90;;;;;;5078437;28;20175;-81
2021/08/29 05:43:19;;;;;;;0.10;0.10;;;15.60;99.90;;;;;;5078447;28;20258;-80
2021/08/29 05:45:44;;;;;;;0.40;0.40;;;15.60;99.90;;;;;;5077849;28;20195;-81
2021/08/29 05:48:10;;;;;;;0.23;0.23;;;15.60;99.90;;;;;;5078540;28;20673;-80
2021/08/29 05:50:36;;;;;;;0.33;0.33;;;15.60;99.90;;;;;;5078556;28;20195;-81
2021/08/29 05:53:01;;;;;;;0.30;0.30;;;15.60;99.90;;;;;;5078173;28;20205;-81
2021/08/29 05:55:27;;;;;;;0.13;0.13;;;15.50;99.90;;;;;;5077496;28;20209;-80
2021/08/29 05:57:53;;;;;;;0.57;0.57;;;15.60;99.90;;;;;;5078645;28;20229;-80
2021/08/29 06:00:19;;;;;;;0.27;0.27;;;15.60;99.90;;;;;;5064099;28;20210;-81
2021/08/29 06:02:45;;;;;;;0.47;0.47;;;15.50;99.90;;;;;;5077516;28;20211;-80
2021/08/29 06:05:10;;;;;;;0.30;0.30;;;15.60;99.90;;;;;;5078786;28;20212;-81
2021/08/29 06:07:36;;;;;;;0.10;0.10;;;15.70;99.90;;;;;;5078091;28;20214;-80
2021/08/29 06:10:02;;;;;;;0.27;0.27;;;15.60;99.90;;;;;;5076956;28;20190;-80
2021/08/29 06:12:28;;;;;;;0.83;0.30;;;15.70;99.90;;;;;;5079007;28;20206;-81
2021/08/29 06:14:53;;;;;;;0.10;0.10;;;15.80;99.90;;;;;;5076622;28;20349;-80
2021/08/29 06:17:19;;;;;;;0.20;0.20;;;15.80;99.90;;;;;;5078571;28;20677;-81
2021/08/29 06:19:44;;;;;;;0.20;0.20;;;15.80;99.90;;;;;;5078461;28;20744;-81
2021/08/29 06:22:10;;;;;;;0.37;0.37;;;15.80;99.90;;;;;;5077879;28;20198;-81
2021/08/29 06:24:35;;;;;;;0.30;0.30;;;15.80;99.90;;;;;;5076454;28;20198;-81
2021/08/29 06:27:01;;;;;;;0.30;0.30;;;15.80;99.90;;;;;;5078204;28;20658;-81
2021/08/29 06:29:26;;;;;;;0.50;0.50;;;15.80;99.90;;;;;;5076405;28;20192;-81
2021/08/29 06:31:52;;;;;;;0.10;0.10;;;15.80;99.90;;;;;;5077434;28;20207;-81
2021/08/29 06:34:17;;;;;;;0.10;0.10;;;15.70;99.90;;;;;;5078565;28;20214;-80
2021/08/29 06:36:44;;;;;;;0.30;0.30;;;15.60;99.90;;;;;;5076601;28;20202;-81
2021/08/29 06:39:09;;;;;;;0.73;0.60;;;15.60;99.90;;;;;;5077479;28;20193;-81
2021/08/29 06:41:35;;;;;;;0.20;0.20;;;15.80;99.90;;;;;;5076817;28;20199;-81
2021/08/29 06:44:00;;;;;;;0.17;0.10;;;15.80;99.90;;;;;;5076428;28;20198;-81
2021/08/29 06:46:26;;;;;;;0.30;0.30;;;15.80;99.90;;;;;;5076335;28;20202;-81
2021/08/29 06:48:51;;;;;;;0.30;0.30;;;15.90;99.90;;;;;;5077661;28;20196;-81
2021/08/29 06:51:17;;;;;;;0.10;0.10;;;16.00;99.90;;;;;;5078011;28;20243;-81
2021/08/29 06:53:43;;;;;;;0.17;0.17;;;16.00;99.90;;;;;;5077381;28;20211;-80
2021/08/29 06:56:08;;;;;;;0.40;0.40;;;15.90;99.90;;;;;;5072257;28;20720;-81
2021/08/29 06:58:34;;;;;;;0.20;0.20;;;15.80;99.90;;;;;;5077748;28;20187;-81
2021/08/29 07:01:00;;;;;;;1.43;0.20;;;15.90;99.90;;;;;;5078073;28;20770;-80
2021/08/29 07:03:25;;;;;;;0.23;0.23;;;15.90;99.90;;;;;;5077719;28;20212;-81
2021/08/29 07:05:51;;;;;;;0.10;0.10;;;15.90;99.90;;;;;;5078001;28;20186;-80
2021/08/29 07:08:16;;;;;;;0.13;0.13;;;15.90;99.90;;;;;;5076062;28;20187;-81
2021/08/29 07:10:42;;;;;;;0.20;0.20;;;16.00;99.90;;;;;;5074833;28;20185;-79
2021/08/29 07:13:07;;;;;;;0.17;0.17;;;16.00;99.90;;;;;;5075233;28;20226;-81
2021/08/29 07:15:33;;;;;;;0.20;0.20;;;16.00;99.90;;;;;;5075995;28;20273;-81
2021/08/29 07:17:58;;;;;;;0.23;0.23;;;15.90;99.90;;;;;;5078009;28;20176;-81
2021/08/29 07:20:24;;;;;;;0.20;0.20;;;16.00;99.90;;;;;;5079449;28;20245;-80
2021/08/29 07:22:49;;;;;;;0.23;0.20;;;15.90;99.90;;;;;;5084423;28;20589;-81
2021/08/29 07:25:15;;;;;;;0.57;0.30;;;16.00;99.90;;;;;;5075427;28;20234;-80
2021/08/29 07:27:40;;;;;;;0.50;0.50;;;16.10;99.90;;;;;;5070988;28;20184;-80
2021/08/29 07:30:06;;;;;;;0.20;0.20;;;15.90;99.90;;;;;;5075248;28;20194;-81
2021/08/29 07:32:32;;;;;;;0.13;0.13;;;16.00;99.90;;;;;;5071260;28;20201;-81
2021/08/29 07:34:57;;;;;;;0.30;0.30;;;16.10;99.90;;;;;;5055091;28;20307;-81
2021/08/29 07:37:23;;;;;;;0.40;0.30;;;16.10;99.90;;;;;;5055409;28;20676;-81
2021/08/29 07:39:50;;;;;;;0.67;0.30;;;16.30;99.90;;;;;;5057832;28;20184;-81
2021/08/29 07:42:15;;;;;;;0.30;0.27;;;16.30;99.90;;;;;;5069515;28;20583;-81
2021/08/29 07:44:41;;;;;;;0.30;0.30;;;16.30;99.90;;;;;;5077317;28;20217;-81
2021/08/29 07:47:07;;;;;;;0.33;0.33;;;16.40;99.90;;;;;;5075942;28;20192;-80
2021/08/29 07:49:32;;;;;;;0.53;0.53;;;16.30;99.90;;;;;;5076874;28;20222;-81
2021/08/29 07:51:58;;;;;;;0.40;0.40;;;16.40;99.90;;;;;;5074873;28;20227;-81
2021/08/29 07:54:23;;;;;;;0.30;0.30;;;16.50;99.90;;;;;;5076481;28;20224;-81
2021/08/29 07:56:49;;;;;;;0.40;0.40;;;16.50;99.90;;;;;;5075937;28;20187;-80
2021/08/29 07:59:14;;;;;;;0.93;0.70;;;16.50;99.90;;;;;;5073732;28;20663;-81
2021/08/29 08:01:40;;;;;;;0.50;0.50;;;16.50;99.90;;;;;;5075984;28;20552;-81
2021/08/29 08:04:05;;;;;;;0.57;0.50;;;16.50;99.90;;;;;;5076609;28;20659;-81
2021/08/29 08:06:31;;;;;;;0.57;0.57;;;16.50;99.90;;;;;;5077104;28;20188;-79
2021/08/29 08:08:57;;;;;;;0.23;0.23;;;16.50;99.90;;;;;;5076973;28;20215;-81
2021/08/29 08:11:23;;;;;;;0.63;0.63;;;16.50;99.90;;;;;;5076046;28;20262;-80
2021/08/29 08:13:48;;;;;;;0.30;0.30;;;16.50;99.90;;;;;;5070758;28;20252;-81
2021/08/29 08:16:14;;;;;;;0.43;0.43;;;16.40;99.90;;;;;;5074188;28;20205;-81
2021/08/29 08:18:40;;;;;;;0.33;0.33;;;16.50;99.90;;;;;;5076487;28;20245;-81
2021/08/29 08:21:05;;;;;;;0.40;0.40;;;16.50;99.90;;;;;;5077316;28;20302;-80
2021/08/29 08:23:31;;;;;;;0.10;0.10;;;16.50;99.90;;;;;;5077128;28;20186;-81
2021/08/29 08:25:56;;;;;;;0.40;0.30;;;16.60;99.90;;;;;;5076874;28;20215;-81
2021/08/29 08:28:22;;;;;;;0.27;0.27;;;16.70;99.90;;;;;;5076959;28;20187;-80
2021/08/29 08:30:47;;;;;;;1.30;0.87;;;16.80;99.90;;;;;;5069354;28;20179;-81
2021/08/29 08:33:13;;;;;;;0.60;0.60;;;16.60;99.90;;;;;;5075611;28;20893;-81
2021/08/29 08:35:40;;;;;;;0.30;0.30;;;16.70;99.90;;;;;;5075199;28;20913;-81
2021/08/29 08:38:05;;;;;;;0.63;0.63;;;16.70;99.90;;;;;;5076973;28;20206;-81
2021/08/29 08:40:41;;;;;;;0.50;0.50;;;16.80;99.90;;;;;;5076662;28;20239;-81
2021/08/29 08:43:07;;;;;;;0.30;0.30;;;16.90;99.90;;;;;;5074301;28;20305;-81
2021/08/29 08:45:34;;;;;;;0.30;0.30;;;17.00;99.90;;;;;;5074828;28;20223;-81
2021/08/29 08:48:02;;;;;;;0.43;0.43;;;16.80;99.90;;;;;;5077483;28;20214;-79
2021/08/29 08:50:29;;;;;;;0.20;0.20;;;16.80;99.90;;;;;;5076318;28;20188;-81
2021/08/29 08:52:56;;;;;;;0.20;0.20;;;16.90;99.90;;;;;;5073785;28;20215;-80
2021/08/29 08:55:22;;;;;;;0.67;0.40;;;16.80;99.90;;;;;;5073467;28;20188;-81
2021/08/29 08:57:48;;;;;;;0.27;0.27;;;16.70;99.90;;;;;;5074243;28;20275;-81
2021/08/29 09:00:14;;;;;;;0.53;0.53;;;16.70;99.90;;;;;;5062410;28;20181;-81
2021/08/29 09:02:41;;;;;;;3.00;0.77;;;16.80;99.90;;;;;;5076606;28;20216;-81
2021/08/29 09:05:08;;;;;;;2.13;0.57;;;16.70;99.90;;;;;;5075301;28;20292;-81
2021/08/29 09:07:35;;;;;;;1.47;1.37;;;16.70;99.90;;;;;;5075998;28;20207;-81
2021/08/29 09:10:00;;;;;;;1.13;0.30;;;16.80;99.90;;;;;;5075425;28;20238;-81
2021/08/29 09:12:26;;;;;;;0.30;0.30;;;16.90;99.90;;;;;;5075436;28;20211;-81
2021/08/29 09:14:57;;;;;;;0.50;0.50;;;16.90;99.90;;;;;;5075918;28;20207;-81
2021/08/29 09:17:34;;;;;;;0.40;0.40;;;16.80;99.90;;;;;;5071335;28;20204;-82
2021/08/29 09:20:29;;;;;;;0.60;0.50;;;17.00;99.90;;;;;;5076459;28;20185;-81
2021/08/29 09:22:57;;;;;;;0.37;0.30;;;17.00;99.90;;;;;;5074287;28;20205;-81
2021/08/29 09:25:25;;;;;;;0.53;0.40;;;17.00;99.90;;;;;;5073751;28;20203;-81
2021/08/29 09:27:53;;;;;;;0.30;0.30;;;17.00;99.90;;;;;;5073654;28;20677;-81
2021/08/29 09:30:21;;;;;;;0.40;0.40;;;16.90;99.90;;;;;;5075521;28;20221;-82
2021/08/29 09:33:01;;;;;;;0.47;0.47;;;17.00;99.90;;;;;;5073035;28;20208;-80
2021/08/29 09:35:31;;;;;;;0.67;0.50;;;17.20;99.90;;;;;;5074984;28;20706;-81
2021/08/29 09:37:58;;;;;;;0.77;0.77;;;17.20;99.90;;;;;;5072656;28;20255;-80
2021/08/29 09:40:25;;;;;;;0.50;0.50;;;17.30;99.90;;;;;;5073206;28;20199;-81
2021/08/29 09:42:53;;;;;;;0.47;0.47;;;17.50;99.90;;;;;;5073155;28;20291;-81
2021/08/29 09:45:30;;;;;;;0.50;0.43;;;17.40;99.90;;;;;;5072991;28;20615;-81
2021/08/29 09:48:03;;;;;;;0.40;0.40;;;17.50;99.90;;;;;;5074500;28;20189;-82
2021/08/29 09:50:31;;;;;;;0.40;0.40;;;17.50;99.90;;;;;;5072375;28;20215;-81
2021/08/29 09:53:12;;;;;;;0.17;0.17;;;17.50;99.90;;;;;;5068330;28;20200;-81
2021/08/29 09:55:40;;;;;;;0.40;0.40;;;17.40;99.90;;;;;;5073699;28;20188;-81
2021/08/29 09:58:31;;;;;;;0.80;0.77;;;17.50;99.90;;;;;;5073785;28;20386;-81
2021/08/29 10:01:09;;;;;;;0.40;0.40;;;17.40;99.90;;;;;;5074534;28;20222;-81
2021/08/29 10:03:36;;;;;;;0.47;0.47;;;17.40;99.90;;;;;;5074745;28;20184;-80
2021/08/29 10:06:15;;;;;;;0.67;0.67;;;17.60;99.90;;;;;;5076565;28;20181;-81
2021/08/29 10:08:51;;;;;;;0.37;0.37;;;17.80;99.90;;;;;;5078087;28;20191;-80
2021/08/29 10:11:18;;;;;;;0.33;0.33;;;17.80;99.90;;;;;;5077727;28;20205;-81
2021/08/29 10:13:44;;;;;;;1.30;0.50;;;17.50;99.90;;;;;;5076988;28;20231;-81
2021/08/29 10:16:11;;;;;;;2.03;0.90;;;17.40;99.90;;;;;;5079299;28;20633;-81
2021/08/29 10:18:40;;;;;;;0.30;0.30;;;17.30;99.90;;;;;;5078770;28;20241;-80
2021/08/29 10:21:10;;;;;;;0.43;0.43;;;17.50;99.90;;;;;;5079310;28;20611;-81
2021/08/29 10:23:41;;;;;;;0.67;0.67;;;17.40;99.90;;;;;;5079774;28;20196;-81
2021/08/29 10:26:09;;;;;;;2.43;0.40;;;17.30;99.90;;;;;;5079024;28;20258;-81
2021/08/29 10:28:39;;;;;;;4.13;0.43;;;17.30;99.90;;;;;;5077310;28;20844;-81
2021/08/29 10:31:10;;;;;;;0.73;0.37;;;17.30;99.90;;;;;;5077010;28;20255;-81
2021/08/29 10:33:37;;;;;;;0.40;0.40;;;17.30;99.90;;;;;;5077431;28;20216;-81
2021/08/29 10:36:02;;;;;;;4.90;0.50;;;16.90;99.90;;;;;;5077625;28;20189;-81
2021/08/29 10:38:28;;;;;;;1.10;0.57;;;17.10;99.90;;;;;;5077195;28;20189;-81
2021/08/29 10:40:54;;;;;;;0.30;0.30;;;17.10;99.90;;;;;;5077825;28;20314;-80
2021/08/29 10:43:20;;;;;;;1.77;0.80;;;17.20;99.90;;;;;;5076172;28;20297;-81
2021/08/29 10:45:46;;;;;;;0.90;0.77;;;17.40;99.90;;;;;;5077588;28;20185;-81
2021/08/29 10:48:15;;;;;;;0.50;0.50;;;17.50;99.90;;;;;;5077400;28;20269;-82
2021/08/29 10:50:46;;;;;;;0.87;0.87;;;17.60;99.90;;;;;;5077664;28;20194;-81
2021/08/29 10:53:32;;;;;;;2.17;1.00;;;17.70;99.90;;;;;;5077469;28;20212;-81
2021/08/29 10:56:19;;;;;;;0.50;0.50;;;17.70;99.90;;;;;;5080132;28;20557;-80
2021/08/29 10:59:04;;;;;;;0.50;0.50;;;17.90;99.90;;;;;;5067011;28;20192;-81
2021/08/29 11:01:34;;;;;;;0.43;0.43;;;17.70;99.90;;;;;;5077160;28;20293;-82
2021/08/29 11:04:20;;;;;;;0.67;0.67;;;17.80;99.90;;;;;;5076870;28;20566;-81
2021/08/29 11:06:49;;;;;;;0.60;0.60;;;17.70;99.90;;;;;;5076493;28;20188;-81
2021/08/29 11:09:36;;;;;;;1.67;0.60;;;17.70;99.90;;;;;;5074794;28;20185;-82
2021/08/29 11:12:14;;;;;;;0.47;0.47;;;17.90;99.90;;;;;;5076956;28;20227;-81
2021/08/29 11:14:49;;;;;;;0.90;0.47;;;18.10;99.90;;;;;;5075920;28;20212;-80
2021/08/29 11:17:16;;;;;;;0.63;0.63;;;18.30;99.90;;;;;;5074060;28;20199;-81
2021/08/29 11:19:44;;;;;;;0.40;0.40;;;18.10;99.90;;;;;;5074659;28;20187;-82
2021/08/29 11:22:10;;;;;;;0.40;0.40;;;17.90;99.90;;;;;;5071542;28;20209;-82
2021/08/29 11:24:56;;;;;;;0.40;0.40;;;18.10;99.90;;;;;;5075718;28;20204;-81
2021/08/29 11:27:39;;;;;;;3.30;1.13;;;18.20;99.90;;;;;;5076687;28;20208;-81
2021/08/29 11:30:05;;;;;;;1.40;1.03;;;17.70;99.90;;;;;;5076395;28;20272;-80
2021/08/29 11:32:40;;;;;;;1.20;1.10;;;17.60;99.90;;;;;;5070952;28;20296;-81
2021/08/29 11:35:09;;;;;;;0.40;0.40;;;17.80;99.90;;;;;;5057151;28;20209;-81
2021/08/29 11:37:35;;;;;;;0.30;0.30;;;17.80;99.90;;;;;;5054624;28;20194;-81
2021/08/29 11:40:03;;;;;;;0.70;0.70;;;17.80;99.90;;;;;;5055963;28;20582;-81
2021/08/29 11:42:29;;;;;;;0.33;0.33;;;18.00;99.90;;;;;;5071164;28;20239;-81
2021/08/29 11:44:56;;;;;;;0.50;0.40;;;18.30;99.90;;;;;;5074709;28;20670;-79
2021/08/29 11:47:35;;;;;;;0.63;0.63;;;18.10;99.90;;;;;;5069063;28;20181;-82
2021/08/29 11:50:03;;;;;;;1.23;0.90;;;18.20;99.90;;;;;;5076064;28;20177;-81
2021/08/29 11:52:31;;;;;;;0.80;0.80;;;18.00;99.90;;;;;;5075708;28;20575;-80
2021/08/29 11:55:10;;;;;;;0.27;0.27;;;18.20;99.90;;;;;;5074455;28;20676;-81
2021/08/29 11:57:46;;;;;;;0.30;0.30;;;17.80;99.90;;;;;;5074343;28;20208;-81
2021/08/29 12:00:12;;;;;;;0.23;0.23;;;18.00;99.90;;;;;;5074590;28;20184;-81
2021/08/29 12:02:41;;;;;;;0.40;0.40;;;18.10;99.90;;;;;;5075923;28;20289;-81
2021/08/29 12:05:12;;;;;;;0.60;0.50;;;18.10;99.90;;;;;;5076153;28;20190;-81
2021/08/29 12:07:39;;;;;;;0.43;0.43;;;18.10;99.90;;;;;;5073616;28;20197;-79
2021/08/29 12:10:05;;;;;;;0.33;0.33;;;18.00;99.90;;;;;;5074268;28;20192;-81
2021/08/29 12:12:32;;;;;;;1.13;0.47;;;17.90;99.90;;;;;;5075112;28;20240;-81
2021/08/29 12:14:58;;;;;;;0.30;0.30;;;17.90;99.90;;;;;;5074224;28;20213;-80
2021/08/29 12:17:25;;;;;;;0.50;0.50;;;17.80;99.90;;;;;;5075303;28;20661;-81
2021/08/29 12:19:51;;;;;;;1.33;0.37;;;17.80;99.90;;;;;;5074639;28;20181;-81
2021/08/29 12:22:17;;;;;;;0.30;0.30;;;17.80;99.90;;;;;;5075617;28;20209;-81
2021/08/29 12:24:43;;;;;;;0.30;0.30;;;17.80;99.90;;;;;;5076622;28;20627;-81
2021/08/29 12:27:11;;;;;;;0.53;0.40;;;17.70;99.90;;;;;;5075693;28;20214;-82
2021/08/29 12:29:54;;;;;;;0.17;0.17;;;17.70;99.90;;;;;;5075675;28;20184;-81
2021/08/29 12:32:23;;;;;;;0.23;0.23;;;17.70;99.90;;;;;;5072573;28;20213;-82
2021/08/29 12:34:52;;;;;;;0.10;0.10;;;17.70;99.90;;;;;;5055396;28;20248;-81
2021/08/29 12:37:19;;;;;;;0.20;0.20;;;17.70;99.90;;;;;;5056105;28;20181;-81
2021/08/29 12:39:56;;;;;;;0.87;0.60;;;17.90;99.90;;;;;;5055423;28;20264;-79
2021/08/29 12:42:24;;;;;;;0.30;0.30;;;17.70;99.90;;;;;;5069625;28;20197;-81
2021/08/29 12:44:51;;;;;;;0.20;0.20;;;17.70;99.90;;;;;;5075361;28;20664;-81
2021/08/29 12:47:18;;;;;;;0.40;0.40;;;17.80;99.90;;;;;;5075180;28;20608;-80
2021/08/29 12:49:45;;;;;;;0.27;0.27;;;17.90;99.90;;;;;;5073350;28;20196;-81
2021/08/29 12:52:25;;;;;;;0.23;0.23;;;17.90;99.90;;;;;;5074302;28;20197;-82